Time;durP1;ratioP1;P1;durP2;ratioP2;P2;SDS_P1;SDS_P2;PMS_P1;PMS_P2;Temp;Humidity;BMP_temperature;BMP_pressure;BME280_temperature;BME280_humidity;BME280_pressure;Samples;Min_cycle;Max_cycle;Signal;HPM_P1;HPM_P2
2021/08/14 00:02:21;;;;;;;10.53;9.50;;;21.00;99.90;;;;;;6223715;23;20737;-84
2021/08/14 00:04:47;;;;;;;8.67;7.83;;;21.00;99.90;;;;;;6223470;23;20447;-84
2021/08/14 00:07:15;;;;;;;9.87;8.90;;;20.90;99.90;;;;;;6223290;23;20417;-84
2021/08/14 00:09:42;;;;;;;11.97;10.60;;;20.90;99.90;;;;;;6222739;23;20905;-84
2021/08/14 00:12:10;;;;;;;10.50;9.60;;;20.80;99.90;;;;;;6222828;23;20419;-84
2021/08/14 00:14:37;;;;;;;9.90;9.00;;;20.70;99.90;;;;;;6223423;23;20413;-84
2021/08/14 00:17:04;;;;;;;10.33;9.47;;;20.80;99.90;;;;;;6223717;23;20412;-84
2021/08/14 00:19:31;;;;;;;11.83;9.70;;;20.70;99.90;;;;;;6223892;23;20410;-84
2021/08/14 00:22:00;;;;;;;9.57;8.60;;;20.70;99.90;;;;;;6222872;23;20968;-84
2021/08/14 00:24:28;;;;;;;9.83;8.87;;;20.70;99.90;;;;;;6223575;23;20513;-84
2021/08/14 00:26:55;;;;;;;10.00;9.00;;;20.70;99.90;;;;;;6223613;23;20419;-84
2021/08/14 00:29:22;;;;;;;10.70;9.60;;;20.60;99.90;;;;;;6224134;23;20417;-83
2021/08/14 00:31:49;;;;;;;10.43;9.50;;;20.50;99.90;;;;;;6222738;23;20763;-83
2021/08/14 00:34:15;;;;;;;10.43;9.57;;;20.50;99.90;;;;;;6223445;23;20415;-84
2021/08/14 00:36:42;;;;;;;10.17;9.27;;;20.50;99.90;;;;;;6223755;23;20436;-84
2021/08/14 00:39:09;;;;;;;10.00;9.10;;;20.40;99.90;;;;;;6223768;23;20488;-84
2021/08/14 00:41:37;;;;;;;9.73;8.90;;;20.40;99.90;;;;;;6225544;23;20438;-83
2021/08/14 00:44:05;;;;;;;10.57;9.47;;;20.40;99.90;;;;;;6232599;23;20441;-84
2021/08/14 00:46:33;;;;;;;10.33;9.30;;;20.40;99.90;;;;;;6233199;23;20420;-84
2021/08/14 00:49:02;;;;;;;10.17;9.27;;;20.40;99.90;;;;;;6224219;23;20753;-84
2021/08/14 00:51:29;;;;;;;10.70;9.70;;;20.40;99.90;;;;;;6223298;23;20466;-84
2021/08/14 00:53:55;;;;;;;8.73;8.13;;;20.30;99.90;;;;;;6223362;23;20415;-84
2021/08/14 00:56:25;;;;;;;9.63;8.83;;;20.40;99.90;;;;;;6223493;23;20413;-84
2021/08/14 00:58:54;;;;;;;9.50;8.67;;;20.30;99.90;;;;;;6222854;23;20405;-84
2021/08/14 01:01:22;;;;;;;9.30;8.60;;;20.30;99.90;;;;;;6222741;23;20464;-84
2021/08/14 01:03:49;;;;;;;10.70;9.70;;;20.30;99.90;;;;;;6222146;23;20446;-84
2021/08/14 01:06:17;;;;;;;10.23;9.43;;;20.30;99.90;;;;;;6224133;23;20419;-83
2021/08/14 01:08:44;;;;;;;11.13;10.03;;;20.20;99.90;;;;;;6223843;23;20416;-84
2021/08/14 01:11:12;;;;;;;10.17;9.30;;;20.20;99.90;;;;;;6223162;23;20791;-84
2021/08/14 01:13:39;;;;;;;12.20;9.70;;;20.20;99.90;;;;;;6222325;23;20417;-84
2021/08/14 01:16:08;;;;;;;10.70;9.80;;;20.20;99.90;;;;;;6223967;23;20420;-84
2021/08/14 01:18:37;;;;;;;10.17;9.37;;;20.10;99.90;;;;;;6222822;23;20709;-84
2021/08/14 01:21:04;;;;;;;10.50;9.70;;;20.10;99.90;;;;;;6222337;23;20436;-84
2021/08/14 01:23:31;;;;;;;10.57;9.50;;;20.10;99.90;;;;;;6222891;23;20498;-85
2021/08/14 01:26:05;;;;;;;10.60;9.60;;;20.10;99.90;;;;;;6224270;23;20493;-83
2021/08/14 01:28:34;;;;;;;10.20;9.33;;;20.00;99.90;;;;;;6224441;23;20392;-83
2021/08/14 01:31:03;;;;;;;9.77;8.80;;;20.00;99.90;;;;;;6224702;23;20435;-83
2021/08/14 01:33:31;;;;;;;11.00;10.10;;;20.00;99.90;;;;;;6224190;23;20403;-83
2021/08/14 01:35:58;;;;;;;9.57;8.50;;;20.00;99.90;;;;;;6224454;23;20401;-83
2021/08/14 01:38:25;;;;;;;10.00;9.20;;;20.00;99.90;;;;;;6224245;23;20419;-83
2021/08/14 01:40:51;;;;;;;9.10;8.17;;;20.00;99.90;;;;;;6224468;23;20433;-84
2021/08/14 01:43:20;;;;;;;11.23;9.10;;;19.90;99.90;;;;;;6224321;23;20410;-83
2021/08/14 01:45:48;;;;;;;11.13;8.63;;;19.90;99.90;;;;;;6225121;23;20448;-83
2021/08/14 01:48:14;;;;;;;12.37;9.10;;;19.90;99.90;;;;;;6224019;23;20409;-83
2021/08/14 01:50:41;;;;;;;11.60;10.60;;;19.90;99.90;;;;;;6224989;23;20770;-83
2021/08/14 01:53:08;;;;;;;10.33;9.30;;;19.90;99.90;;;;;;6224913;23;20408;-83
2021/08/14 01:55:35;;;;;;;9.17;8.47;;;19.80;99.90;;;;;;6225940;23;20405;-84
2021/08/14 01:58:03;;;;;;;9.70;8.87;;;19.80;99.90;;;;;;6224272;23;20737;-84
2021/08/14 02:00:29;;;;;;;9.27;8.37;;;19.80;99.90;;;;;;6224818;23;20429;-83
2021/08/14 02:02:58;;;;;;;10.90;10.00;;;19.80;99.90;;;;;;6223938;23;20442;-83
2021/08/14 02:05:25;;;;;;;9.37;8.67;;;19.80;99.90;;;;;;6224297;23;20439;-83
2021/08/14 02:07:51;;;;;;;10.27;9.37;;;19.80;99.90;;;;;;6222919;23;20417;-83
2021/08/14 02:10:19;;;;;;;9.60;8.37;;;19.80;99.90;;;;;;6222856;23;20436;-84
2021/08/14 02:12:46;;;;;;;9.27;8.47;;;19.80;99.90;;;;;;6223473;23;20425;-83
2021/08/14 02:15:12;;;;;;;9.87;8.87;;;19.80;99.90;;;;;;6223783;23;20411;-83
2021/08/14 02:17:39;;;;;;;10.13;9.13;;;19.80;99.90;;;;;;6224197;23;20411;-83
2021/08/14 02:20:08;;;;;;;8.90;7.90;;;19.80;99.90;;;;;;6224173;23;20429;-83
2021/08/14 02:22:35;;;;;;;10.93;9.87;;;19.80;99.90;;;;;;6223751;23;20413;-84
2021/08/14 02:25:02;;;;;;;10.07;9.07;;;19.70;99.90;;;;;;6227291;23;20403;-84
2021/08/14 02:27:28;;;;;;;8.30;7.60;;;19.70;99.90;;;;;;6230042;23;20394;-85
2021/08/14 02:29:55;;;;;;;9.83;8.93;;;19.70;99.90;;;;;;6229968;23;20903;-84
2021/08/14 02:32:22;;;;;;;10.23;9.43;;;19.70;99.90;;;;;;6228720;23;20417;-84
2021/08/14 02:34:49;;;;;;;8.10;7.40;;;19.70;99.90;;;;;;6231097;23;20444;-83
2021/08/14 02:37:17;;;;;;;12.23;9.50;;;19.60;99.90;;;;;;6231925;23;20417;-85
2021/08/14 02:39:44;;;;;;;10.07;9.17;;;19.60;99.90;;;;;;6230846;23;20475;-84
2021/08/14 02:42:10;;;;;;;9.73;8.83;;;19.60;99.90;;;;;;6231497;23;20415;-84
2021/08/14 02:44:37;;;;;;;8.93;8.13;;;19.60;99.90;;;;;;6230693;23;20405;-83
2021/08/14 02:47:04;;;;;;;11.00;10.00;;;19.50;99.90;;;;;;6231603;23;20422;-84
2021/08/14 02:49:31;;;;;;;9.73;8.83;;;19.50;99.90;;;;;;6231101;23;20420;-84
2021/08/14 02:52:01;;;;;;;10.57;9.57;;;19.50;99.90;;;;;;6230675;23;20449;-84
2021/08/14 02:54:29;;;;;;;10.60;9.70;;;19.40;99.90;;;;;;6230708;23;20530;-82
2021/08/14 02:56:55;;;;;;;10.07;9.17;;;19.40;99.90;;;;;;6232484;23;20422;-84
2021/08/14 02:59:22;;;;;;;10.43;9.60;;;19.40;99.90;;;;;;6232457;23;20437;-83
2021/08/14 03:01:49;;;;;;;10.30;9.30;;;19.40;99.90;;;;;;6231182;23;20435;-84
2021/08/14 03:04:16;;;;;;;10.27;9.47;;;19.40;99.90;;;;;;6232582;23;20412;-84
2021/08/14 03:06:42;;;;;;;10.70;9.80;;;19.40;99.90;;;;;;6231538;23;20404;-83
2021/08/14 03:09:09;;;;;;;10.10;9.20;;;19.40;99.90;;;;;;6231279;23;20704;-84
2021/08/14 03:11:37;;;;;;;9.87;8.50;;;19.40;99.90;;;;;;6231256;23;20497;-83
2021/08/14 03:14:04;;;;;;;11.20;10.10;;;19.30;99.90;;;;;;6231798;23;20405;-84
2021/08/14 03:16:31;;;;;;;10.93;9.13;;;19.30;99.90;;;;;;6230726;23;20403;-84
2021/08/14 03:18:58;;;;;;;10.00;9.20;;;19.30;99.90;;;;;;6231455;23;20421;-83
2021/08/14 03:21:24;;;;;;;10.93;10.03;;;19.30;99.90;;;;;;6230891;23;20484;-84
2021/08/14 03:23:51;;;;;;;11.60;9.57;;;19.30;99.90;;;;;;6230170;23;20461;-84
2021/08/14 03:26:18;;;;;;;10.97;10.00;;;19.30;99.90;;;;;;6231158;23;20408;-83
2021/08/14 03:28:48;;;;;;;10.00;9.10;;;19.20;99.90;;;;;;6231141;23;20443;-84
2021/08/14 03:31:15;;;;;;;9.60;8.70;;;19.20;99.90;;;;;;6230367;23;20421;-84
2021/08/14 03:33:42;;;;;;;9.90;9.00;;;19.20;99.90;;;;;;6231127;23;20418;-83
2021/08/14 03:36:18;;;;;;;;;;;;;;;;;;;;;
2021/08/14 03:38:47;;;;;;;11.30;10.43;;;19.10;99.90;;;;;;6226350;23;20420;-83
2021/08/14 03:41:14;;;;;;;10.60;9.67;;;19.10;99.90;;;;;;6226095;23;20431;-83
2021/08/14 03:43:41;;;;;;;9.50;8.60;;;19.10;99.90;;;;;;6225114;23;20429;-83
2021/08/14 03:46:09;;;;;;;10.30;9.30;;;19.00;99.90;;;;;;6226325;23;20439;-83
2021/08/14 03:48:35;;;;;;;8.90;8.20;;;19.00;99.90;;;;;;6225997;23;20411;-83
2021/08/14 03:51:02;;;;;;;9.67;8.80;;;19.00;99.90;;;;;;6225795;23;20434;-83
2021/08/14 03:53:30;;;;;;;12.10;10.20;;;19.00;99.90;;;;;;6226385;23;20411;-83
2021/08/14 03:55:58;;;;;;;10.03;9.23;;;18.90;99.90;;;;;;6226504;23;20443;-83
2021/08/14 03:58:25;;;;;;;11.20;9.90;;;18.90;99.90;;;;;;6226296;23;20412;-83
2021/08/14 04:00:52;;;;;;;11.10;10.10;;;18.90;99.90;;;;;;6226218;23;20448;-83
2021/08/14 04:03:20;;;;;;;10.17;9.13;;;18.90;99.90;;;;;;6225613;23;20415;-83
2021/08/14 04:05:46;;;;;;;10.57;9.77;;;18.90;99.90;;;;;;6225848;23;20407;-83
2021/08/14 04:08:13;;;;;;;10.97;9.87;;;18.90;99.90;;;;;;6225073;23;20419;-83
2021/08/14 04:10:41;;;;;;;10.63;9.73;;;18.90;99.90;;;;;;6225148;23;20436;-83
2021/08/14 04:13:07;;;;;;;11.00;10.00;;;18.90;99.90;;;;;;6224742;23;20420;-83
2021/08/14 04:15:34;;;;;;;11.70;10.60;;;18.80;99.90;;;;;;6226037;23;20444;-83
2021/08/14 04:18:01;;;;;;;12.33;11.17;;;18.80;99.90;;;;;;6224868;23;20428;-83
2021/08/14 04:20:29;;;;;;;13.00;10.57;;;18.70;99.90;;;;;;6226034;23;20437;-83
2021/08/14 04:22:56;;;;;;;10.90;9.80;;;18.70;99.90;;;;;;6225257;23;20900;-83
2021/08/14 04:25:22;;;;;;;9.87;8.97;;;18.70;99.90;;;;;;6225743;23;20410;-83
2021/08/14 04:27:49;;;;;;;10.37;9.50;;;18.70;99.90;;;;;;6225643;23;20416;-83
2021/08/14 04:30:16;;;;;;;11.03;9.57;;;18.70;99.90;;;;;;6230646;23;20439;-82
2021/08/14 04:32:43;;;;;;;11.50;10.40;;;18.70;99.90;;;;;;6233376;23;20480;-83
2021/08/14 04:35:12;;;;;;;9.90;9.00;;;18.70;99.90;;;;;;6230781;23;20450;-83
2021/08/14 04:37:41;;;;;;;10.33;9.03;;;18.70;99.90;;;;;;6226915;23;20492;-83
2021/08/14 04:40:10;;;;;;;11.27;10.30;;;18.70;99.90;;;;;;6227220;23;20433;-83
2021/08/14 04:42:37;;;;;;;10.57;9.57;;;18.70;99.90;;;;;;6225834;23;20751;-83
2021/08/14 04:45:05;;;;;;;9.73;8.93;;;18.70;99.90;;;;;;6225907;23;20404;-83
2021/08/14 04:47:32;;;;;;;10.60;9.50;;;18.70;99.90;;;;;;6227336;23;20427;-83
2021/08/14 04:49:58;;;;;;;11.73;10.80;;;18.70;99.90;;;;;;6226441;23;20906;-83
2021/08/14 04:52:25;;;;;;;10.20;9.37;;;18.80;99.90;;;;;;6224628;23;20419;-83
2021/08/14 04:54:54;;;;;;;10.87;9.77;;;18.80;99.90;;;;;;6224718;23;20425;-83
2021/08/14 04:57:20;;;;;;;10.77;9.73;;;18.80;99.90;;;;;;6225091;23;20900;-83
2021/08/14 04:59:47;;;;;;;10.40;9.50;;;18.80;99.90;;;;;;6225457;23;20405;-83
2021/08/14 05:02:14;;;;;;;9.80;8.90;;;18.90;99.90;;;;;;6225209;23;20411;-83
2021/08/14 05:04:40;;;;;;;12.20;10.33;;;18.90;99.90;;;;;;6225501;23;20415;-83
2021/08/14 05:07:07;;;;;;;9.70;8.90;;;18.90;99.90;;;;;;6224585;23;20412;-83
2021/08/14 05:09:36;;;;;;;11.70;10.60;;;18.90;99.90;;;;;;6225996;23;20420;-83
2021/08/14 05:12:05;;;;;;;11.70;10.70;;;19.00;99.90;;;;;;6221927;23;20451;-83
2021/08/14 05:14:32;;;;;;;10.23;9.30;;;19.00;99.90;;;;;;6221789;23;20412;-83
2021/08/14 05:16:58;;;;;;;10.47;9.43;;;19.00;99.90;;;;;;6224152;23;20448;-83
2021/08/14 05:19:25;;;;;;;11.50;10.50;;;19.00;99.90;;;;;;6224604;23;20408;-83
2021/08/14 05:21:52;;;;;;;10.97;9.87;;;19.10;99.90;;;;;;6224408;23;20435;-83
2021/08/14 05:24:19;;;;;;;11.63;10.60;;;19.10;99.90;;;;;;6225087;23;20413;-83
2021/08/14 05:26:45;;;;;;;10.63;9.73;;;19.20;99.90;;;;;;6225662;23;20404;-83
2021/08/14 05:29:14;;;;;;;11.33;10.33;;;19.20;99.90;;;;;;6225314;23;20415;-83
2021/08/14 05:31:40;;;;;;;11.27;10.20;;;19.20;99.90;;;;;;6224945;23;20436;-83
2021/08/14 05:34:07;;;;;;;11.73;10.50;;;19.30;99.90;;;;;;6224473;23;20434;-83
2021/08/14 05:36:34;;;;;;;9.97;9.00;;;19.30;99.90;;;;;;6223981;23;20505;-83
2021/08/14 05:39:01;;;;;;;10.73;9.77;;;19.40;99.90;;;;;;6224323;23;20432;-82
2021/08/14 05:41:28;;;;;;;10.23;9.20;;;19.40;99.90;;;;;;6223585;23;20436;-85
2021/08/14 05:43:55;;;;;;;9.93;9.13;;;19.50;99.90;;;;;;6223586;23;20413;-83
2021/08/14 05:46:23;;;;;;;10.90;9.90;;;19.50;99.90;;;;;;6222934;23;20408;-83
2021/08/14 05:48:50;;;;;;;10.00;9.00;;;19.60;99.90;;;;;;6222756;23;20404;-83
2021/08/14 05:51:16;;;;;;;11.57;10.67;;;19.70;99.90;;;;;;6222523;23;20456;-83
2021/08/14 05:53:43;;;;;;;10.13;9.33;;;19.80;99.90;;;;;;6223879;23;20404;-83
2021/08/14 05:56:10;;;;;;;10.40;9.40;;;19.90;99.90;;;;;;6224461;23;20445;-83
2021/08/14 05:58:39;;;;;;;11.50;10.40;;;19.90;99.90;;;;;;6224819;23;20409;-83
2021/08/14 06:01:05;;;;;;;11.37;10.23;;;20.00;99.90;;;;;;6229070;23;20475;-84
2021/08/14 06:03:36;;;;;;;10.70;9.33;;;20.00;99.90;;;;;;6228851;23;20423;-86
2021/08/14 06:06:03;;;;;;;13.47;11.53;;;20.10;99.90;;;;;;6228524;23;20713;-86
2021/08/14 06:08:31;;;;;;;11.33;10.33;;;20.20;99.90;;;;;;6230857;23;20403;-85
2021/08/14 06:10:58;;;;;;;10.73;9.63;;;20.40;99.90;;;;;;6232127;23;20502;-85
2021/08/14 06:13:39;;;;;;;10.83;9.83;;;20.50;99.90;;;;;;6226896;23;20425;-84
2021/08/14 06:16:09;;;;;;;12.90;11.60;;;20.60;99.90;;;;;;6226896;23;20442;-86
2021/08/14 06:18:40;;;;;;;10.23;9.33;;;20.70;99.90;;;;;;6226335;23;20414;-83
2021/08/14 06:21:09;;;;;;;11.30;9.40;;;20.80;99.90;;;;;;6226213;23;20434;-84
2021/08/14 06:23:36;;;;;;;11.60;10.50;;;20.90;99.90;;;;;;6225231;23;20416;-85
2021/08/14 06:26:03;;;;;;;11.20;10.03;;;21.00;99.90;;;;;;6225838;23;20404;-84
2021/08/14 06:28:30;;;;;;;10.63;9.57;;;21.10;99.90;;;;;;6225186;23;20418;-84
2021/08/14 06:30:56;;;;;;;11.83;10.93;;;21.20;99.90;;;;;;6225985;23;20502;-84
2021/08/14 06:33:29;;;;;;;10.40;9.60;;;21.30;99.90;;;;;;6225860;23;20406;-85
2021/08/14 06:35:57;;;;;;;9.73;8.93;;;21.40;99.90;;;;;;6225564;23;20433;-85
2021/08/14 06:38:26;;;;;;;10.53;9.43;;;21.50;99.90;;;;;;6226220;23;20479;-84
2021/08/14 06:40:53;;;;;;;9.77;9.07;;;21.60;99.90;;;;;;6225477;23;20434;-85
2021/08/14 06:43:23;;;;;;;9.77;8.97;;;21.70;99.90;;;;;;6225150;23;20422;-85
2021/08/14 06:45:49;;;;;;;10.87;9.97;;;21.80;99.90;;;;;;6225940;23;20401;-85
2021/08/14 06:48:16;;;;;;;11.63;9.80;;;21.90;99.90;;;;;;6225690;23;20415;-85
2021/08/14 06:50:43;;;;;;;9.53;8.73;;;21.90;99.90;;;;;;6225999;23;20469;-84
2021/08/14 06:53:11;;;;;;;10.93;10.00;;;22.00;99.90;;;;;;6225453;23;20426;-84
2021/08/14 06:55:37;;;;;;;10.07;9.23;;;22.10;99.90;;;;;;6225929;23;20473;-86
2021/08/14 06:58:04;;;;;;;10.10;9.20;;;22.20;99.90;;;;;;6226275;23;20415;-85
2021/08/14 07:00:31;;;;;;;10.40;9.50;;;22.30;99.90;;;;;;6225575;23;20429;-85
2021/08/14 07:02:58;;;;;;;11.10;9.97;;;22.40;99.90;;;;;;6225771;23;20409;-85
2021/08/14 07:05:25;;;;;;;10.40;9.43;;;22.50;99.90;;;;;;6226286;23;20895;-85
2021/08/14 07:24:19;;;;;;;10.30;9.30;;;23.10;99.90;;;;;;6225624;23;20405;-85
2021/08/14 07:31:04;;;;;;;11.13;10.23;;;23.30;99.90;;;;;;6177402;23;20464;-86
2021/08/14 07:33:43;;;;;;;11.03;9.97;;;23.40;99.90;;;;;;6226230;23;20386;-84
2021/08/14 07:36:35;;;;;;;11.00;9.30;;;23.60;99.90;;;;;;6225628;23;20468;-85
2021/08/14 07:39:04;;;;;;;10.40;8.43;;;23.60;99.90;;;;;;6226570;23;20758;-85
2021/08/14 07:41:37;;;;;;;9.47;8.70;;;23.70;99.90;;;;;;6227176;23;20425;-84
2021/08/14 07:44:06;;;;;;;11.00;10.10;;;23.70;99.90;;;;;;6226892;23;20394;-85
2021/08/14 07:46:33;;;;;;;11.03;9.93;;;23.80;99.90;;;;;;6228332;23;20722;-85
2021/08/14 07:49:01;;;;;;;10.10;8.87;;;23.90;99.90;;;;;;6227474;23;20413;-85
2021/08/14 07:51:28;;;;;;;9.90;9.03;;;23.90;99.90;;;;;;6226568;23;20476;-85
2021/08/14 07:53:55;;;;;;;11.53;9.10;;;24.00;99.90;;;;;;6227239;23;20415;-84
2021/08/14 07:56:22;;;;;;;11.00;10.10;;;24.10;99.90;;;;;;6227381;23;20445;-85
2021/08/14 07:58:49;;;;;;;9.30;8.40;;;24.20;99.90;;;;;;6227108;23;20427;-85
2021/08/14 08:01:16;;;;;;;10.40;9.00;;;24.30;99.90;;;;;;6226647;23;20434;-86
2021/08/14 08:03:43;;;;;;;9.03;8.37;;;24.40;99.90;;;;;;6226829;23;20405;-85
2021/08/14 08:06:13;;;;;;;9.07;8.37;;;24.50;99.90;;;;;;6228027;23;20501;-85
2021/08/14 08:08:40;;;;;;;9.37;8.37;;;24.50;99.90;;;;;;6226998;23;20405;-85
2021/08/14 08:11:06;;;;;;;9.17;8.33;;;24.50;99.90;;;;;;6227435;23;20429;-85
2021/08/14 08:13:33;;;;;;;10.30;9.30;;;24.60;99.90;;;;;;6228156;23;20423;-85
2021/08/14 08:16:00;;;;;;;9.07;8.03;;;24.80;99.90;;;;;;6228059;23;20455;-85
2021/08/14 08:18:26;;;;;;;9.83;8.77;;;24.80;99.90;;;;;;6228510;23;20407;-85
2021/08/14 08:20:53;;;;;;;10.70;8.80;;;24.90;99.90;;;;;;6231530;23;20436;-85
2021/08/14 08:23:21;;;;;;;9.37;8.47;;;25.00;99.90;;;;;;6233165;23;20409;-84
2021/08/14 08:25:48;;;;;;;8.83;8.13;;;25.10;99.90;;;;;;6231395;23;20411;-85
2021/08/14 08:28:20;;;;;;;12.30;9.80;;;25.20;99.90;;;;;;6228422;23;20409;-85
2021/08/14 08:30:47;;;;;;;9.30;8.57;;;25.20;99.40;;;;;;6227976;23;20431;-85
2021/08/14 08:33:14;;;;;;;8.87;8.13;;;25.30;98.90;;;;;;6227365;23;20414;-85
2021/08/14 08:35:40;;;;;;;8.17;7.37;;;25.40;99.30;;;;;;6227746;23;20415;-85
2021/08/14 08:38:07;;;;;;;9.93;9.13;;;25.40;97.60;;;;;;6227499;23;20442;-85
2021/08/14 08:40:38;;;;;;;7.63;6.80;;;25.40;98.00;;;;;;6227771;23;20424;-85
2021/08/14 08:43:05;;;;;;;7.10;6.50;;;25.60;97.80;;;;;;6227049;23;20385;-85
2021/08/14 08:45:32;;;;;;;7.93;7.27;;;25.70;96.80;;;;;;6227177;23;20427;-85
2021/08/14 08:47:59;;;;;;;8.07;7.47;;;25.70;96.60;;;;;;6227833;23;20415;-85
2021/08/14 08:50:29;;;;;;;8.00;7.20;;;25.80;96.40;;;;;;6227853;23;20434;-85
2021/08/14 08:52:57;;;;;;;8.70;7.97;;;25.90;96.80;;;;;;6227569;23;20399;-85
2021/08/14 08:55:24;;;;;;;9.63;8.83;;;26.00;97.50;;;;;;6229463;23;20502;-85
2021/08/14 08:57:52;;;;;;;7.37;6.77;;;25.90;98.20;;;;;;6226985;23;20448;-85
2021/08/14 09:00:19;;;;;;;7.57;6.97;;;26.10;96.60;;;;;;6231222;23;20432;-85
2021/08/14 09:03:04;;;;;;;8.40;7.60;;;26.20;96.40;;;;;;6231181;23;20411;-85
2021/08/14 09:05:31;;;;;;;8.50;7.80;;;26.30;96.50;;;;;;6229797;23;20427;-85
2021/08/14 09:08:10;;;;;;;8.80;7.93;;;26.40;96.30;;;;;;6230478;23;20406;-85
2021/08/14 09:10:38;;;;;;;7.67;7.03;;;26.50;96.40;;;;;;6231941;23;20432;-85
2021/08/14 09:13:12;;;;;;;7.80;7.10;;;26.60;95.40;;;;;;6230367;23;20428;-85
2021/08/14 09:15:39;;;;;;;9.73;8.90;;;26.70;96.10;;;;;;6233320;23;20397;-85
2021/08/14 09:18:08;;;;;;;9.33;8.53;;;26.90;96.80;;;;;;6231876;23;20458;-85
2021/08/14 09:20:46;;;;;;;7.73;7.13;;;27.00;95.20;;;;;;6231534;23;20436;-85
2021/08/14 09:23:15;;;;;;;8.10;7.50;;;27.10;94.90;;;;;;6231682;23;20395;-85
2021/08/14 09:25:44;;;;;;;9.23;8.43;;;27.20;94.20;;;;;;6231628;23;20448;-85
2021/08/14 09:28:14;;;;;;;8.20;7.50;;;27.30;94.30;;;;;;6231052;23;20404;-85
2021/08/14 09:30:49;;;;;;;8.43;7.73;;;27.40;94.50;;;;;;6231084;23;20482;-85
2021/08/14 09:33:18;;;;;;;9.73;8.30;;;27.50;94.30;;;;;;6232120;23;20378;-82
2021/08/14 09:35:46;;;;;;;8.53;7.70;;;27.60;94.20;;;;;;6231170;23;20410;-83
2021/08/14 09:38:14;;;;;;;8.40;7.70;;;27.60;93.60;;;;;;6233060;23;20448;-83
2021/08/14 09:40:42;;;;;;;8.43;7.63;;;27.40;93.90;;;;;;6232533;23;20425;-83
2021/08/14 09:43:10;;;;;;;8.50;7.70;;;27.40;94.10;;;;;;6233366;23;20438;-83
2021/08/14 09:45:38;;;;;;;8.27;7.57;;;27.60;94.20;;;;;;6233108;23;20420;-83
2021/08/14 09:48:17;;;;;;;8.10;7.40;;;27.70;93.50;;;;;;6234389;23;20750;-83
2021/08/14 09:50:44;;;;;;;7.73;7.03;;;27.80;93.60;;;;;;6233407;23;20442;-83
2021/08/14 09:53:13;;;;;;;9.87;9.07;;;28.00;94.50;;;;;;6233162;23;20416;-84
2021/08/14 09:55:40;;;;;;;8.73;7.93;;;28.10;93.50;;;;;;6233668;23;20487;-83
2021/08/14 09:58:09;;;;;;;8.50;7.60;;;28.30;93.50;;;;;;6234191;23;20447;-83
2021/08/14 10:00:39;;;;;;;7.83;7.13;;;28.30;92.60;;;;;;6234203;23;20431;-84
2021/08/14 10:03:07;;;;;;;7.80;7.10;;;28.40;92.00;;;;;;6233973;23;20422;-83
2021/08/14 10:05:35;;;;;;;8.47;7.77;;;28.40;92.30;;;;;;6234289;23;20408;-84
2021/08/14 10:08:03;;;;;;;8.53;7.73;;;28.60;92.00;;;;;;6233617;23;20416;-83
2021/08/14 10:10:30;;;;;;;9.73;8.93;;;28.70;92.50;;;;;;6233282;23;20428;-83
2021/08/14 10:12:59;;;;;;;8.20;7.50;;;28.70;92.10;;;;;;6228309;23;20413;-83
2021/08/14 10:15:26;;;;;;;7.80;7.10;;;28.90;92.70;;;;;;6227554;23;20416;-84
2021/08/14 10:17:55;;;;;;;9.20;8.50;;;28.90;91.50;;;;;;6226943;23;20445;-84
2021/08/14 10:20:22;;;;;;;8.67;7.70;;;28.90;91.10;;;;;;6228117;23;20447;-83
2021/08/14 10:22:57;;;;;;;8.40;7.63;;;29.00;90.80;;;;;;6227772;23;20408;-84
2021/08/14 10:25:24;;;;;;;8.60;7.67;;;29.20;90.90;;;;;;6226343;23;20397;-84
2021/08/14 10:27:55;;;;;;;9.57;8.77;;;29.10;91.00;;;;;;6228558;23;20410;-84
2021/08/14 10:30:44;;;;;;;9.03;8.33;;;29.30;92.50;;;;;;6227210;23;20444;-84
2021/08/14 10:33:35;;;;;;;9.10;8.40;;;29.60;92.30;;;;;;6227198;23;20392;-84
2021/08/14 10:36:35;;;;;;;9.47;8.67;;;30.00;91.40;;;;;;6227644;23;20451;-83
2021/08/14 10:39:18;;;;;;;8.73;8.03;;;30.30;90.30;;;;;;6228060;23;20403;-84
2021/08/14 10:41:47;;;;;;;8.40;7.67;;;30.60;88.90;;;;;;6226577;23;20490;-84
2021/08/14 10:44:14;;;;;;;7.60;7.00;;;30.80;87.50;;;;;;6226607;23;20428;-82
2021/08/14 10:46:49;;;;;;;9.13;8.43;;;30.80;87.40;;;;;;6226262;23;20402;-83
2021/08/14 10:49:37;;;;;;;7.87;7.27;;;30.80;85.50;;;;;;6226135;23;20422;-83
2021/08/14 10:52:13;;;;;;;8.97;8.20;;;30.80;85.70;;;;;;6226609;23;20441;-84
2021/08/14 10:55:03;;;;;;;9.50;8.77;;;30.90;84.60;;;;;;6227868;23;20386;-84
2021/08/14 10:57:41;;;;;;;8.50;7.87;;;31.00;85.50;;;;;;6229126;23;20432;-84
2021/08/14 11:00:27;;;;;;;8.20;7.60;;;31.10;84.40;;;;;;6229059;23;20429;-83
2021/08/14 11:03:09;;;;;;;9.70;8.83;;;31.40;85.20;;;;;;6228368;23;20396;-83
2021/08/14 11:05:41;;;;;;;7.77;7.17;;;31.70;84.20;;;;;;6228448;23;20421;-84
2021/08/14 11:08:38;;;;;;;8.63;7.70;;;31.90;82.50;;;;;;6227971;23;20485;-84
2021/08/14 11:11:38;;;;;;;9.00;8.30;;;32.30;83.00;;;;;;6228394;23;20433;-84
2021/08/14 11:14:09;;;;;;;7.73;7.13;;;32.80;81.20;;;;;;6229392;23;20427;-84
2021/08/14 11:16:55;;;;;;;8.50;7.80;;;33.30;78.60;;;;;;6228382;23;20774;-84
2021/08/14 11:19:53;;;;;;;9.03;7.67;;;33.80;74.80;;;;;;6227709;23;20419;-84
2021/08/14 11:22:23;;;;;;;8.57;7.97;;;34.10;73.60;;;;;;6106940;23;20404;-83
2021/08/14 11:24:50;;;;;;;8.70;8.00;;;34.20;72.80;;;;;;6203174;23;20409;-84
2021/08/14 11:27:19;;;;;;;10.27;9.47;;;34.10;72.60;;;;;;6229164;23;20444;-84
2021/08/14 11:29:46;;;;;;;8.90;8.10;;;33.80;72.20;;;;;;6227670;23;20405;-84
2021/08/14 11:32:13;;;;;;;8.10;7.50;;;33.90;71.30;;;;;;6228659;23;20476;-84
2021/08/14 11:34:41;;;;;;;7.60;7.07;;;34.20;73.90;;;;;;6227793;23;20409;-84
2021/08/14 11:37:09;;;;;;;6.77;6.37;;;34.40;71.20;;;;;;6227830;23;20405;-84
2021/08/14 11:39:36;;;;;;;8.93;8.33;;;34.70;70.50;;;;;;6227434;23;20499;-84
2021/08/14 11:42:03;;;;;;;8.70;8.00;;;35.30;68.40;;;;;;6227093;23;20435;-84
2021/08/14 11:44:35;;;;;;;8.47;7.77;;;36.10;68.40;;;;;;6227902;23;20419;-84
2021/08/14 11:47:02;;;;;;;8.13;7.53;;;36.60;65.60;;;;;;6227208;23;20460;-84
2021/08/14 11:49:29;;;;;;;8.90;8.20;;;37.10;64.70;;;;;;6227465;23;20420;-84
2021/08/14 11:52:03;;;;;;;8.13;7.33;;;37.00;61.30;;;;;;6227136;23;20425;-83
2021/08/14 11:54:30;;;;;;;9.90;9.10;;;36.90;59.90;;;;;;6226668;23;20889;-84
2021/08/14 11:57:09;;;;;;;9.33;8.57;;;36.70;60.40;;;;;;6228063;23;20419;-83
2021/08/14 11:59:37;;;;;;;7.50;6.87;;;36.80;65.00;;;;;;6227086;23;20439;-84
2021/08/14 12:02:04;;;;;;;9.43;8.63;;;37.20;62.50;;;;;;6227028;23;20437;-83
2021/08/14 12:04:31;;;;;;;8.23;7.63;;;37.20;59.90;;;;;;6227813;23;20411;-85
2021/08/14 12:06:59;;;;;;;8.57;7.90;;;37.20;59.10;;;;;;6228293;23;20401;-83
2021/08/14 12:09:25;;;;;;;8.17;7.57;;;37.10;59.10;;;;;;6230658;23;20427;-84
2021/08/14 12:11:53;;;;;;;9.33;8.57;;;36.60;59.60;;;;;;6230975;23;20436;-84
2021/08/14 12:14:21;;;;;;;9.43;8.73;;;35.90;61.40;;;;;;6231829;23;20414;-83
2021/08/14 12:16:55;;;;;;;9.40;8.50;;;35.30;61.50;;;;;;6229122;23;20504;-84
2021/08/14 12:19:27;;;;;;;9.03;8.33;;;34.50;62.20;;;;;;6228021;23;20378;-85
2021/08/14 12:22:13;;;;;;;9.20;8.40;;;34.30;63.50;;;;;;6227983;23;20433;-84
2021/08/14 12:24:52;;;;;;;8.60;7.90;;;34.60;63.70;;;;;;6227891;23;20417;-85
2021/08/14 12:27:36;;;;;;;8.67;8.03;;;34.90;64.80;;;;;;6227394;23;20763;-84
2021/08/14 12:30:43;;;;;;;10.13;9.30;;;35.30;63.20;;;;;;6227822;23;20377;-85
2021/08/14 12:33:24;;;;;;;8.30;7.70;;;35.60;62.30;;;;;;6228372;23;20415;-85
2021/08/14 12:35:56;;;;;;;8.50;7.80;;;35.40;62.90;;;;;;6228300;23;20451;-86
2021/08/14 12:38:22;;;;;;;9.53;8.83;;;35.20;63.50;;;;;;6227135;23;20415;-86
2021/08/14 12:40:49;;;;;;;8.60;8.07;;;35.10;64.10;;;;;;6226808;23;20430;-86
2021/08/14 12:43:17;;;;;;;8.23;7.53;;;35.10;63.30;;;;;;6228411;23;20674;-85
2021/08/14 12:45:44;;;;;;;8.83;7.93;;;34.90;62.90;;;;;;6232148;23;20415;-85
2021/08/14 12:48:11;;;;;;;10.00;9.17;;;35.20;63.30;;;;;;6236033;23;20451;-86
2021/08/14 12:50:39;;;;;;;9.30;8.60;;;35.50;61.80;;;;;;6235846;23;20431;-82
2021/08/14 12:53:10;;;;;;;8.83;8.00;;;36.00;61.20;;;;;;6237821;23;20488;-83
2021/08/14 12:55:39;;;;;;;9.20;8.50;;;36.40;61.30;;;;;;6237411;23;20397;-85
2021/08/14 12:58:07;;;;;;;8.50;7.90;;;36.80;59.80;;;;;;6231171;23;20411;-84
2021/08/14 13:00:34;;;;;;;9.60;8.70;;;37.30;59.90;;;;;;6229923;23;20430;-86
2021/08/14 13:03:01;;;;;;;9.97;9.13;;;38.10;58.60;;;;;;6227527;23;20496;-85
2021/08/14 13:05:30;;;;;;;9.37;8.67;;;38.90;58.40;;;;;;6228183;23;20413;-86
2021/08/14 13:08:10;;;;;;;;;;;;;;;;;;;;;
2021/08/14 13:10:39;;;;;;;8.80;8.20;;;40.50;54.10;;;;;;6218394;23;20457;-86
2021/08/14 13:13:25;;;;;;;8.27;7.67;;;40.90;53.80;;;;;;6227264;23;20448;-86
2021/08/14 13:15:52;;;;;;;9.70;8.80;;;41.50;53.40;;;;;;6229445;23;20393;-84